Time;durP1;ratioP1;P1;durP2;ratioP2;P2;SDS_P1;SDS_P2;PMS_P1;PMS_P2;Temp;Humidity;BMP_temperature;BMP_pressure;BME280_temperature;BME280_humidity;BME280_pressure;Samples;Min_cycle;Max_cycle;Signal;HPM_P1;HPM_P2
2021/07/09 00:01:22;;;;;;;14.77;6.25;;;18.20;67.90;;;;;;5037788;28;20098;-68
2021/07/09 00:03:48;;;;;;;15.52;5.57;;;18.10;67.50;;;;;;5037956;28;20052;-68
2021/07/09 00:06:14;;;;;;;16.15;5.68;;;18.20;68.30;;;;;;5037541;28;20055;-68
2021/07/09 00:08:41;;;;;;;12.43;4.80;;;18.10;67.60;;;;;;5037492;28;20480;-68
2021/07/09 00:11:06;;;;;;;12.95;5.60;;;18.10;67.60;;;;;;5037428;28;20026;-68
2021/07/09 00:13:32;;;;;;;13.05;5.10;;;18.10;67.50;;;;;;5053386;28;20120;-68
2021/07/09 00:15:58;;;;;;;15.30;5.07;;;18.10;67.50;;;;;;5037739;28;21729;-68
2021/07/09 00:18:25;;;;;;;11.70;4.43;;;18.10;67.40;;;;;;5037467;28;20112;-68
2021/07/09 00:20:51;;;;;;;13.68;5.35;;;18.10;67.30;;;;;;5037141;28;20034;-68
2021/07/09 00:23:18;;;;;;;13.13;4.80;;;18.00;67.20;;;;;;5037295;28;20459;-68
2021/07/09 00:25:43;;;;;;;13.88;4.95;;;18.00;67.20;;;;;;5037569;28;20041;-68
2021/07/09 00:28:09;;;;;;;11.85;4.53;;;18.00;67.30;;;;;;5037444;28;20029;-68
2021/07/09 00:30:35;;;;;;;12.77;4.65;;;18.00;67.30;;;;;;5037401;28;20479;-68
2021/07/09 00:33:01;;;;;;;12.15;4.20;;;18.00;67.30;;;;;;5037454;28;20029;-68
2021/07/09 00:35:27;;;;;;;12.75;5.25;;;18.00;67.40;;;;;;5037311;28;20468;-69
2021/07/09 00:37:52;;;;;;;14.60;5.70;;;18.00;67.40;;;;;;5037400;28;20035;-68
2021/07/09 00:40:18;;;;;;;14.32;5.60;;;17.90;67.30;;;;;;5041268;28;20453;-68
2021/07/09 00:42:44;;;;;;;14.63;5.25;;;18.00;67.90;;;;;;5041711;28;20096;-68
2021/07/09 00:45:12;;;;;;;15.98;6.13;;;17.90;67.50;;;;;;5041183;28;20018;-68
2021/07/09 00:47:38;;;;;;;10.35;4.43;;;17.90;67.70;;;;;;5041355;28;20026;-68
2021/07/09 00:50:05;;;;;;;13.75;6.03;;;17.90;67.80;;;;;;5041194;28;20104;-68
2021/07/09 00:52:31;;;;;;;16.65;5.47;;;17.90;67.80;;;;;;5041265;28;20466;-68
2021/07/09 00:54:56;;;;;;;13.98;5.63;;;17.90;67.90;;;;;;5040777;28;20035;-68
2021/07/09 00:57:23;;;;;;;11.75;4.30;;;17.90;67.70;;;;;;5041326;28;20464;-68
2021/07/09 00:59:49;;;;;;;13.57;4.85;;;17.90;67.60;;;;;;5056216;28;20108;-68
2021/07/09 01:02:15;;;;;;;14.38;5.45;;;17.90;67.50;;;;;;5056393;28;20083;-68
2021/07/09 01:04:41;;;;;;;15.88;5.85;;;17.90;67.90;;;;;;5040838;28;20025;-68
2021/07/09 01:07:06;;;;;;;13.07;5.15;;;17.80;67.90;;;;;;5040946;28;20029;-68
2021/07/09 01:09:32;;;;;;;16.23;5.93;;;17.80;67.90;;;;;;5040425;28;20523;-68
2021/07/09 01:12:02;;;;;;;12.77;5.30;;;17.80;68.00;;;;;;5041045;28;20033;-68
2021/07/09 01:14:28;;;;;;;15.68;6.20;;;17.80;68.20;;;;;;5040784;28;20030;-68
2021/07/09 01:16:54;;;;;;;13.48;5.43;;;17.80;68.20;;;;;;5040738;28;20055;-68
2021/07/09 01:19:21;;;;;;;15.27;6.32;;;17.80;68.20;;;;;;5040319;28;20132;-68
2021/07/09 01:21:48;;;;;;;15.15;6.55;;;17.80;68.30;;;;;;5040712;28;20025;-68
2021/07/09 01:24:16;;;;;;;13.07;5.47;;;17.80;68.00;;;;;;5040338;28;20028;-68
2021/07/09 01:26:43;;;;;;;12.23;5.20;;;17.80;68.10;;;;;;5040510;28;20061;-68
2021/07/09 01:29:10;;;;;;;13.93;5.60;;;17.70;67.90;;;;;;5040320;28;20101;-68
2021/07/09 01:31:37;;;;;;;14.43;5.32;;;17.80;67.80;;;;;;5040555;28;20079;-68
2021/07/09 01:34:04;;;;;;;12.43;5.20;;;17.70;67.80;;;;;;5040275;28;20029;-68
2021/07/09 01:36:31;;;;;;;14.15;5.07;;;17.70;67.90;;;;;;5040447;28;20113;-68
2021/07/09 01:38:59;;;;;;;12.65;5.47;;;17.70;67.90;;;;;;5039899;28;20022;-68
2021/07/09 01:41:25;;;;;;;14.25;5.88;;;17.60;68.00;;;;;;5040170;28;20446;-68
2021/07/09 01:43:51;;;;;;;16.98;6.03;;;17.60;68.00;;;;;;5040475;28;20100;-68
2021/07/09 01:46:17;;;;;;;14.48;5.90;;;17.60;68.00;;;;;;5040368;28;20079;-68
2021/07/09 01:48:43;;;;;;;15.90;6.25;;;17.60;68.10;;;;;;5040110;28;20021;-68
2021/07/09 01:51:08;;;;;;;16.50;6.60;;;17.60;67.90;;;;;;5039263;28;20032;-68
2021/07/09 01:53:34;;;;;;;11.55;5.25;;;17.60;67.70;;;;;;5039801;28;20029;-69
2021/07/09 01:56:00;;;;;;;14.40;5.63;;;17.50;67.60;;;;;;5040046;28;20029;-68
2021/07/09 01:58:26;;;;;;;14.07;5.30;;;17.50;67.60;;;;;;5039801;28;20543;-68
2021/07/09 02:00:52;;;;;;;14.15;5.40;;;17.50;67.70;;;;;;5040168;28;20056;-68
2021/07/09 02:03:19;;;;;;;12.30;4.68;;;17.50;67.70;;;;;;5039789;28;20463;-68
2021/07/09 02:05:45;;;;;;;12.95;5.20;;;17.50;68.30;;;;;;5040039;28;20411;-68
2021/07/09 02:08:11;;;;;;;13.20;5.25;;;17.50;68.20;;;;;;5039488;28;20453;-68
2021/07/09 02:10:40;;;;;;;12.30;5.35;;;17.40;67.60;;;;;;5039582;28;20052;-68
2021/07/09 02:13:06;;;;;;;13.18;5.55;;;17.40;68.20;;;;;;5039773;28;20488;-68
2021/07/09 02:15:38;;;;;;;12.90;5.20;;;17.40;67.70;;;;;;5039902;28;20045;-69
2021/07/09 02:18:05;;;;;;;15.70;5.15;;;17.40;67.70;;;;;;5039591;28;20500;-68
2021/07/09 02:20:31;;;;;;;13.77;5.05;;;17.40;67.80;;;;;;5032403;28;20057;-68
2021/07/09 02:22:59;;;;;;;12.52;4.95;;;17.40;67.90;;;;;;5039347;28;20014;-68
2021/07/09 02:25:25;;;;;;;14.13;5.45;;;17.40;68.00;;;;;;5039371;28;20028;-68
2021/07/09 02:27:53;;;;;;;15.07;5.50;;;17.40;68.00;;;;;;5039596;28;20392;-68
2021/07/09 02:30:20;;;;;;;14.55;4.97;;;17.40;68.10;;;;;;5039469;28;20029;-68
2021/07/09 02:32:47;;;;;;;12.02;5.45;;;17.40;68.20;;;;;;5039621;28;20078;-69
2021/07/09 02:35:18;;;;;;;19.48;5.80;;;17.30;68.20;;;;;;5039414;28;20037;-68
2021/07/09 02:37:46;;;;;;;10.73;4.72;;;17.40;68.20;;;;;;5039069;28;20362;-68
2021/07/09 02:40:14;;;;;;;11.98;5.22;;;17.40;68.30;;;;;;5038949;28;20436;-68
2021/07/09 02:42:42;;;;;;;14.95;5.88;;;17.30;68.30;;;;;;5039458;28;20032;-68
2021/07/09 02:45:12;;;;;;;12.18;5.03;;;17.30;68.40;;;;;;5038980;28;20028;-68
2021/07/09 02:47:39;;;;;;;12.85;5.53;;;17.30;68.40;;;;;;5039134;28;20083;-68
2021/07/09 02:50:07;;;;;;;17.67;6.72;;;17.30;68.40;;;;;;5038952;28;20030;-68
2021/07/09 02:52:33;;;;;;;14.93;6.15;;;17.40;68.60;;;;;;5039260;28;20017;-68
2021/07/09 02:54:59;;;;;;;16.05;6.10;;;17.40;68.70;;;;;;5038698;28;20029;-68
2021/07/09 02:57:25;;;;;;;10.90;5.35;;;17.30;68.90;;;;;;5039014;28;20052;-68
2021/07/09 02:59:51;;;;;;;18.90;6.80;;;17.30;68.80;;;;;;5039202;28;20022;-68
2021/07/09 03:02:16;;;;;;;14.82;5.32;;;17.30;69.00;;;;;;5038562;28;20029;-69
2021/07/09 03:04:42;;;;;;;12.30;4.78;;;17.30;68.80;;;;;;5038677;28;20022;-68
2021/07/09 03:07:08;;;;;;;14.45;6.13;;;17.30;68.70;;;;;;5038764;28;20025;-69
2021/07/09 03:09:34;;;;;;;14.73;6.30;;;17.30;68.70;;;;;;5038241;28;20026;-68
2021/07/09 03:12:01;;;;;;;13.35;4.75;;;17.40;68.80;;;;;;5038646;28;20056;-68
2021/07/09 03:14:26;;;;;;;17.20;5.47;;;17.30;68.80;;;;;;5038502;28;20449;-68
2021/07/09 03:16:52;;;;;;;10.93;5.07;;;17.30;68.80;;;;;;5038510;28;20061;-68
2021/07/09 03:19:20;;;;;;;15.02;6.32;;;17.30;68.90;;;;;;5038031;28;20049;-68
2021/07/09 03:21:45;;;;;;;16.70;5.60;;;17.30;68.90;;;;;;5038572;28;20104;-68
2021/07/09 03:24:11;;;;;;;14.70;6.20;;;17.30;69.20;;;;;;5038100;28;20045;-69
2021/07/09 03:26:37;;;;;;;15.23;6.35;;;17.30;69.20;;;;;;5038344;28;20492;-68
2021/07/09 03:29:03;;;;;;;14.63;5.85;;;17.30;69.10;;;;;;5038435;28;20396;-68
2021/07/09 03:31:31;;;;;;;13.77;5.28;;;17.30;69.10;;;;;;5038362;28;20026;-69
2021/07/09 03:33:57;;;;;;;13.57;5.53;;;17.30;69.00;;;;;;5038150;28;20472;-68
2021/07/09 03:36:27;;;;;;;14.45;5.57;;;17.30;69.10;;;;;;5053575;28;20064;-68
2021/07/09 03:38:54;;;;;;;12.18;5.45;;;17.30;69.00;;;;;;5037608;28;20504;-68
2021/07/09 03:41:20;;;;;;;14.15;6.00;;;17.30;69.00;;;;;;5038177;28;20027;-68
2021/07/09 03:43:46;;;;;;;16.90;5.80;;;17.30;69.00;;;;;;5037901;28;20022;-68
2021/07/09 03:46:12;;;;;;;14.10;5.35;;;17.30;69.10;;;;;;5038006;28;20033;-69
2021/07/09 03:48:38;;;;;;;16.50;6.88;;;17.30;69.10;;;;;;5037743;28;20396;-68
2021/07/09 03:51:05;;;;;;;15.27;5.88;;;17.30;69.20;;;;;;5033388;28;20485;-68
2021/07/09 03:53:31;;;;;;;12.25;6.47;;;17.30;69.20;;;;;;5032953;28;20037;-68
2021/07/09 03:55:58;;;;;;;15.05;7.13;;;17.20;69.30;;;;;;5028630;28;20393;-68
2021/07/09 03:58:24;;;;;;;16.23;6.00;;;17.20;69.40;;;;;;5037571;28;20053;-69
2021/07/09 04:00:50;;;;;;;15.30;7.18;;;17.20;69.40;;;;;;5037714;28;20025;-68
2021/07/09 04:03:16;;;;;;;17.45;7.10;;;17.20;69.50;;;;;;5037597;28;20017;-68
2021/07/09 04:05:42;;;;;;;17.05;7.38;;;17.30;69.50;;;;;;5037892;28;20021;-69
2021/07/09 04:08:08;;;;;;;20.05;7.78;;;17.20;69.40;;;;;;5037235;28;20049;-69
2021/07/09 04:10:34;;;;;;;16.40;7.38;;;17.20;69.60;;;;;;5037273;28;20026;-69
2021/07/09 04:13:00;;;;;;;20.23;8.00;;;17.20;69.50;;;;;;5036872;28;20013;-69
2021/07/09 04:15:25;;;;;;;19.55;8.40;;;17.30;70.00;;;;;;5037554;28;20036;-68
2021/07/09 04:17:51;;;;;;;18.80;7.97;;;17.20;70.70;;;;;;5037500;28;20028;-69
2021/07/09 04:20:17;;;;;;;22.80;7.70;;;17.20;70.80;;;;;;5037192;28;20050;-68
2021/07/09 04:22:43;;;;;;;17.75;7.03;;;17.20;70.80;;;;;;5037204;28;20040;-68
2021/07/09 04:25:11;;;;;;;17.98;7.05;;;17.20;70.80;;;;;;5037460;28;20385;-68
2021/07/09 04:27:38;;;;;;;17.25;7.00;;;17.20;70.90;;;;;;5037148;28;20076;-69
2021/07/09 04:30:06;;;;;;;15.98;6.43;;;17.20;71.10;;;;;;5037403;28;20030;-68
2021/07/09 04:32:31;;;;;;;18.92;7.45;;;17.20;70.70;;;;;;5037294;28;20104;-68
2021/07/09 04:34:57;;;;;;;17.23;6.22;;;17.20;70.50;;;;;;5037380;28;20060;-68
2021/07/09 04:37:23;;;;;;;15.90;6.78;;;17.10;70.60;;;;;;5037230;28;20506;-68
2021/07/09 04:39:49;;;;;;;19.25;7.35;;;17.10;70.70;;;;;;5037160;28;20029;-68
2021/07/09 04:42:15;;;;;;;15.23;7.07;;;17.10;70.60;;;;;;5037081;28;20099;-68
2021/07/09 04:44:41;;;;;;;20.05;7.22;;;17.10;70.50;;;;;;5037292;28;20432;-68
2021/07/09 04:47:07;;;;;;;21.35;7.38;;;17.10;71.00;;;;;;5037080;28;20492;-68
2021/07/09 04:49:34;;;;;;;17.08;7.05;;;17.10;70.90;;;;;;5037241;28;20076;-69
2021/07/09 04:52:00;;;;;;;16.13;6.75;;;17.10;70.80;;;;;;5037158;28;20077;-68
2021/07/09 04:54:26;;;;;;;15.75;6.72;;;17.10;71.10;;;;;;5037003;28;20039;-68
2021/07/09 04:56:51;;;;;;;14.07;6.30;;;17.10;70.90;;;;;;5037104;28;20026;-68
2021/07/09 04:59:17;;;;;;;16.40;7.07;;;17.10;71.10;;;;;;5037118;28;20032;-69
2021/07/09 05:01:43;;;;;;;15.90;6.63;;;17.10;71.10;;;;;;5037032;28;20056;-68
2021/07/09 05:04:09;;;;;;;16.63;7.45;;;17.10;71.10;;;;;;5037122;28;20068;-68
2021/07/09 05:06:35;;;;;;;20.30;7.72;;;17.10;71.30;;;;;;5037027;28;20071;-68
2021/07/09 05:09:03;;;;;;;16.55;6.78;;;17.10;71.40;;;;;;5051928;28;20127;-67
2021/07/09 05:11:29;;;;;;;17.38;6.82;;;17.10;71.70;;;;;;5036808;28;20014;-71
2021/07/09 05:13:55;;;;;;;14.57;7.25;;;17.10;71.40;;;;;;5032380;28;20118;-70
2021/07/09 05:16:21;;;;;;;15.60;6.13;;;17.10;71.50;;;;;;5035371;28;20036;-70
2021/07/09 05:18:47;;;;;;;16.52;6.57;;;17.10;71.50;;;;;;5036616;28;20028;-72
2021/07/09 05:21:12;;;;;;;16.15;7.07;;;17.20;71.80;;;;;;5037065;28;20025;-71
2021/07/09 05:23:38;;;;;;;15.57;5.75;;;17.20;71.60;;;;;;5036745;28;20032;-70
2021/07/09 05:26:04;;;;;;;17.48;7.35;;;17.10;71.70;;;;;;5040313;28;20022;-70
2021/07/09 05:28:30;;;;;;;18.08;7.90;;;17.20;72.20;;;;;;5040614;28;20026;-70
2021/07/09 05:30:56;;;;;;;15.90;7.15;;;17.20;72.20;;;;;;5040621;28;20018;-71
2021/07/09 05:33:22;;;;;;;18.80;7.57;;;17.20;72.30;;;;;;5040480;28;20036;-70
2021/07/09 05:35:48;;;;;;;17.35;8.40;;;17.20;72.40;;;;;;5040020;28;20022;-70
2021/07/09 05:38:14;;;;;;;21.15;7.97;;;17.20;72.40;;;;;;5040109;28;20029;-69
2021/07/09 05:40:40;;;;;;;19.05;8.07;;;17.20;72.60;;;;;;5040226;28;20519;-69
2021/07/09 05:43:06;;;;;;;18.35;7.63;;;17.20;73.10;;;;;;5040269;28;20071;-70
2021/07/09 05:45:32;;;;;;;21.52;7.53;;;17.20;73.00;;;;;;5040164;28;20024;-70
2021/07/09 05:47:58;;;;;;;16.95;7.53;;;17.20;73.10;;;;;;5040183;28;20065;-70
2021/07/09 05:50:28;;;;;;;17.92;8.25;;;17.20;72.50;;;;;;5035569;28;20060;-70
2021/07/09 05:52:56;;;;;;;17.05;6.93;;;17.20;72.30;;;;;;5033279;28;20111;-71
2021/07/09 05:55:23;;;;;;;17.05;7.30;;;17.20;72.40;;;;;;5040259;28;20022;-70
2021/07/09 05:57:48;;;;;;;20.23;9.25;;;17.20;72.30;;;;;;5039559;28;20057;-71
2021/07/09 06:00:15;;;;;;;21.02;8.95;;;17.30;72.80;;;;;;5040228;28;20022;-70
2021/07/09 06:02:41;;;;;;;15.88;7.05;;;17.20;72.50;;;;;;5039082;28;20029;-70
2021/07/09 06:05:08;;;;;;;18.20;7.30;;;17.30;72.70;;;;;;5039667;28;20025;-70
2021/07/09 06:07:34;;;;;;;18.35;7.55;;;17.30;72.80;;;;;;5054752;28;20029;-70
2021/07/09 06:10:00;;;;;;;17.35;7.18;;;17.30;72.80;;;;;;5039572;28;20022;-71
2021/07/09 06:12:26;;;;;;;16.65;7.05;;;17.30;72.70;;;;;;5054972;28;20072;-70
2021/07/09 06:14:52;;;;;;;16.20;6.82;;;17.40;72.50;;;;;;5039711;28;20017;-70
2021/07/09 06:17:19;;;;;;;14.68;7.60;;;17.40;72.40;;;;;;5039744;28;20030;-70
2021/07/09 06:19:44;;;;;;;16.63;7.85;;;17.40;72.70;;;;;;5029585;28;20037;-70
2021/07/09 06:22:10;;;;;;;15.57;6.88;;;17.40;72.70;;;;;;5028404;28;20041;-70
2021/07/09 06:24:36;;;;;;;57.70;30.52;;;17.40;72.60;;;;;;5032964;28;20029;-69
2021/07/09 06:27:03;;;;;;;55.40;27.55;;;17.40;72.60;;;;;;5035874;28;20465;-69
2021/07/09 06:29:29;;;;;;;32.70;15.73;;;17.40;72.70;;;;;;5036963;28;20017;-68
2021/07/09 06:31:55;;;;;;;23.13;11.52;;;17.40;72.90;;;;;;5039267;28;20079;-68
2021/07/09 06:34:21;;;;;;;20.75;9.77;;;17.40;72.90;;;;;;5039431;28;20104;-68
2021/07/09 06:36:47;;;;;;;21.02;7.82;;;17.40;73.40;;;;;;5038616;28;20025;-69
2021/07/09 06:39:13;;;;;;;17.23;8.63;;;17.40;72.60;;;;;;5039191;28;20362;-69
2021/07/09 06:41:39;;;;;;;18.52;8.02;;;17.40;72.80;;;;;;5038312;28;20079;-69
2021/07/09 06:44:05;;;;;;;20.45;8.68;;;17.40;72.70;;;;;;5029991;28;20034;-69
2021/07/09 06:46:31;;;;;;;17.02;7.70;;;17.40;72.90;;;;;;5027908;28;20508;-69
2021/07/09 06:48:57;;;;;;;18.30;7.38;;;17.40;72.70;;;;;;5030681;28;20048;-69
2021/07/09 06:51:22;;;;;;;17.65;7.50;;;17.40;72.70;;;;;;5041272;28;20656;-68
2021/07/09 06:53:48;;;;;;;20.95;7.53;;;17.40;72.90;;;;;;5037397;28;20025;-68
2021/07/09 06:56:15;;;;;;;17.30;7.97;;;17.40;72.80;;;;;;5034838;28;20029;-68
2021/07/09 06:58:41;;;;;;;16.98;8.05;;;17.40;72.60;;;;;;5038622;28;20518;-69
2021/07/09 07:01:06;;;;;;;20.95;9.65;;;17.40;72.70;;;;;;5038636;28;20057;-69
2021/07/09 07:03:32;;;;;;;23.60;9.35;;;17.40;73.00;;;;;;5029935;28;20022;-70
2021/07/09 07:05:58;;;;;;;19.05;8.80;;;17.40;73.20;;;;;;5038667;28;20029;-69
2021/07/09 07:08:25;;;;;;;20.52;9.50;;;17.40;72.90;;;;;;5038131;28;20018;-69
2021/07/09 07:10:53;;;;;;;17.63;8.80;;;17.40;73.00;;;;;;5038591;28;20083;-70
2021/07/09 07:13:26;;;;;;;15.35;7.28;;;17.30;73.10;;;;;;5038589;28;20022;-70
2021/07/09 07:15:52;;;;;;;12.73;6.80;;;17.30;73.00;;;;;;5038156;28;20026;-69
2021/07/09 07:18:18;;;;;;;11.02;6.03;;;17.30;73.00;;;;;;5034226;28;20029;-69
2021/07/09 07:20:45;;;;;;;11.73;6.38;;;17.30;73.00;;;;;;5036449;28;20077;-69
2021/07/09 07:23:15;;;;;;;12.60;7.15;;;17.30;73.10;;;;;;5037982;28;20396;-69
2021/07/09 07:25:41;;;;;;;10.18;5.57;;;17.30;73.10;;;;;;5038039;28;20029;-70
2021/07/09 07:28:07;;;;;;;12.90;6.18;;;17.30;73.00;;;;;;5038082;28;20527;-69
2021/07/09 07:30:33;;;;;;;13.00;5.75;;;17.30;72.90;;;;;;5037824;28;20083;-69
2021/07/09 07:32:59;;;;;;;12.23;6.03;;;17.30;73.10;;;;;;5037961;28;20025;-69
2021/07/09 07:35:25;;;;;;;12.20;6.47;;;17.30;73.10;;;;;;5037987;28;20030;-70
2021/07/09 07:37:52;;;;;;;13.23;6.07;;;17.30;73.10;;;;;;5037617;28;20025;-70
2021/07/09 07:40:19;;;;;;;12.75;5.55;;;17.30;73.00;;;;;;5037822;28;20064;-69
2021/07/09 07:42:45;;;;;;;11.95;5.57;;;17.30;73.80;;;;;;5037804;28;20048;-70
2021/07/09 07:45:11;;;;;;;10.68;5.80;;;17.40;74.00;;;;;;5037261;28;20041;-69
2021/07/09 07:47:38;;;;;;;9.63;5.10;;;17.40;74.40;;;;;;5034828;28;20553;-69
2021/07/09 07:50:06;;;;;;;12.43;5.80;;;17.40;74.20;;;;;;5037759;28;20030;-68
2021/07/09 07:52:31;;;;;;;10.50;5.38;;;17.40;74.20;;;;;;5036293;28;20030;-68
2021/07/09 07:54:57;;;;;;;12.52;5.40;;;17.40;74.30;;;;;;5025282;28;20029;-69
2021/07/09 07:57:23;;;;;;;10.20;5.47;;;17.40;75.20;;;;;;5037729;28;20063;-68
2021/07/09 07:59:49;;;;;;;10.20;5.03;;;17.50;74.60;;;;;;5037621;28;20030;-69
2021/07/09 08:02:15;;;;;;;11.48;5.20;;;17.50;75.10;;;;;;5037412;28;20032;-68
2021/07/09 08:04:41;;;;;;;9.70;4.95;;;17.50;75.20;;;;;;5036204;28;20029;-69
2021/07/09 08:07:10;;;;;;;8.75;4.70;;;17.60;75.90;;;;;;5037378;28;20115;-68
2021/07/09 08:09:36;;;;;;;7.03;3.72;;;17.60;75.80;;;;;;5037114;28;20093;-69
2021/07/09 08:12:02;;;;;;;10.35;4.55;;;17.70;75.90;;;;;;5037394;28;20112;-69
2021/07/09 08:14:28;;;;;;;10.45;5.07;;;17.60;76.40;;;;;;5037448;28;20026;-69
2021/07/09 08:16:54;;;;;;;12.38;5.63;;;17.70;76.30;;;;;;5037409;28;20100;-69
2021/07/09 08:19:21;;;;;;;10.15;5.00;;;17.70;76.00;;;;;;5036942;28;20107;-69
2021/07/09 08:21:48;;;;;;;10.80;5.70;;;17.80;75.80;;;;;;5037237;28;20036;-69
2021/07/09 08:24:15;;;;;;;10.13;5.78;;;17.80;75.70;;;;;;5037037;28;20026;-69
2021/07/09 08:26:40;;;;;;;12.65;6.15;;;17.80;75.90;;;;;;5037467;28;20033;-70
2021/07/09 08:29:06;;;;;;;10.18;4.47;;;17.90;76.40;;;;;;5037133;28;20108;-69
2021/07/09 08:31:32;;;;;;;6.55;3.47;;;17.90;76.20;;;;;;5037261;28;20025;-69
2021/07/09 08:33:58;;;;;;;4.97;2.75;;;17.80;76.00;;;;;;5037130;28;20032;-71
2021/07/09 08:36:25;;;;;;;4.63;2.35;;;17.80;76.00;;;;;;5037385;28;20057;-69
2021/07/09 08:38:51;;;;;;;5.22;2.45;;;17.80;76.80;;;;;;5036781;28;20025;-69
2021/07/09 08:41:18;;;;;;;6.60;2.40;;;17.90;76.60;;;;;;5035803;28;20029;-69
2021/07/09 08:43:44;;;;;;;6.22;2.53;;;17.90;76.80;;;;;;5036963;28;20025;-69
2021/07/09 08:46:10;;;;;;;5.60;2.85;;;17.90;76.70;;;;;;5035646;28;20036;-70
2021/07/09 08:48:40;;;;;;;4.78;2.63;;;17.90;76.60;;;;;;5036842;28;20021;-70
2021/07/09 08:51:07;;;;;;;4.13;2.50;;;18.00;76.40;;;;;;5037198;28;20030;-69
2021/07/09 08:53:33;;;;;;;4.53;2.20;;;17.90;76.10;;;;;;5049967;28;20041;-70
2021/07/09 08:55:59;;;;;;;4.15;2.13;;;18.00;76.10;;;;;;5026770;28;20021;-70
2021/07/09 08:58:25;;;;;;;3.83;1.80;;;18.00;76.30;;;;;;5036824;28;20022;-69
2021/07/09 09:00:52;;;;;;;4.00;2.28;;;18.10;77.00;;;;;;5040212;28;20431;-69
2021/07/09 09:03:24;;;;;;;4.00;1.98;;;18.10;76.70;;;;;;5040853;28;20152;-69
2021/07/09 09:05:51;;;;;;;6.18;2.40;;;18.20;77.10;;;;;;5040742;28;20468;-70
2021/07/09 09:08:20;;;;;;;4.68;2.08;;;18.30;77.10;;;;;;5040302;28;20435;-70
2021/07/09 09:10:55;;;;;;;5.25;2.08;;;18.30;76.90;;;;;;5040600;28;20033;-70
2021/07/09 09:13:24;;;;;;;3.92;1.90;;;18.30;76.70;;;;;;5040491;28;20024;-69
2021/07/09 09:16:02;;;;;;;4.07;1.73;;;18.40;76.80;;;;;;5040423;28;20400;-69
2021/07/09 09:18:33;;;;;;;5.20;1.80;;;18.40;76.80;;;;;;5040829;28;20064;-69
2021/07/09 09:21:02;;;;;;;3.65;1.52;;;18.40;76.80;;;;;;5040091;28;20060;-69
2021/07/09 09:23:30;;;;;;;4.00;1.63;;;18.50;76.90;;;;;;5040568;28;20022;-69
2021/07/09 09:25:56;;;;;;;3.22;1.58;;;18.50;76.60;;;;;;5040233;28;20025;-70
2021/07/09 09:28:23;;;;;;;4.57;1.92;;;18.50;76.30;;;;;;5040567;28;20029;-69
2021/07/09 09:30:52;;;;;;;4.68;1.70;;;18.50;76.00;;;;;;5032760;28;20010;-70
2021/07/09 09:33:18;;;;;;;3.70;1.38;;;18.40;76.30;;;;;;5039594;28;20116;-69
2021/07/09 09:35:48;;;;;;;2.70;1.20;;;18.40;76.10;;;;;;5038938;28;20082;-69
2021/07/09 09:38:16;;;;;;;3.15;1.40;;;18.40;76.40;;;;;;5038851;28;20034;-69
2021/07/09 09:40:43;;;;;;;3.53;1.38;;;18.60;76.60;;;;;;5038917;28;20025;-69
2021/07/09 09:43:16;;;;;;;2.20;0.90;;;18.60;76.40;;;;;;5038891;28;20022;-70
2021/07/09 09:45:42;;;;;;;2.85;1.00;;;18.70;76.30;;;;;;5036925;28;20026;-69
2021/07/09 09:48:12;;;;;;;2.45;1.00;;;18.70;76.20;;;;;;5039091;28;20045;-69
2021/07/09 09:50:49;;;;;;;2.67;1.10;;;18.90;76.40;;;;;;5038760;28;20044;-70
2021/07/09 09:53:32;;;;;;;2.80;1.10;;;19.00;76.50;;;;;;5036996;28;20408;-69
2021/07/09 09:56:09;;;;;;;4.80;1.73;;;19.10;76.80;;;;;;5037567;28;20029;-69
2021/07/09 09:58:35;;;;;;;5.18;2.20;;;19.40;77.20;;;;;;5038245;28;20033;-69
2021/07/09 10:01:01;;;;;;;4.85;1.80;;;19.50;77.20;;;;;;5035374;28;20065;-69
2021/07/09 10:03:27;;;;;;;5.20;2.05;;;19.70;77.10;;;;;;5037653;28;20107;-68
2021/07/09 10:05:53;;;;;;;4.57;2.30;;;19.90;76.70;;;;;;5039964;28;20021;-69
2021/07/09 10:08:21;;;;;;;4.20;2.25;;;20.00;76.90;;;;;;5039305;28;20451;-69
2021/07/09 10:10:48;;;;;;;4.63;2.17;;;20.20;76.00;;;;;;5038738;28;20404;-69
2021/07/09 10:13:21;;;;;;;4.85;2.20;;;20.30;76.10;;;;;;5039596;28;20047;-69
2021/07/09 10:15:51;;;;;;;4.25;2.05;;;20.50;76.90;;;;;;5039787;28;20022;-69
2021/07/09 10:18:19;;;;;;;5.80;2.13;;;20.70;76.10;;;;;;5026903;28;20117;-69
2021/07/09 10:20:47;;;;;;;5.55;2.00;;;20.80;76.30;;;;;;5039227;28;20081;-69
2021/07/09 10:23:17;;;;;;;4.88;2.13;;;20.90;76.00;;;;;;5026900;28;20497;-69
2021/07/09 10:25:48;;;;;;;6.20;2.28;;;21.00;75.60;;;;;;5035787;28;20083;-68
2021/07/09 10:28:21;;;;;;;5.35;2.20;;;21.20;74.90;;;;;;5039080;28;20543;-68
2021/07/09 10:30:47;;;;;;;4.38;2.08;;;21.30;76.00;;;;;;5037113;28;20031;-68
2021/07/09 10:33:32;;;;;;;4.68;2.10;;;21.50;76.40;;;;;;5039398;28;20017;-68
2021/07/09 10:35:59;;;;;;;4.05;2.13;;;21.80;74.20;;;;;;5039223;28;20045;-68
2021/07/09 10:38:35;;;;;;;6.43;2.33;;;21.90;74.60;;;;;;5038707;28;20068;-68
2021/07/09 10:41:18;;;;;;;4.60;1.83;;;22.00;75.10;;;;;;5029068;28;20021;-69
2021/07/09 10:44:14;;;;;;;5.30;1.70;;;22.10;74.40;;;;;;5038965;28;20029;-69
2021/07/09 10:46:40;;;;;;;5.65;2.08;;;22.10;74.50;;;;;;5036667;28;20061;-69
2021/07/09 10:49:06;;;;;;;5.75;2.10;;;22.20;74.20;;;;;;5038853;28;20033;-68
2021/07/09 10:51:51;;;;;;;4.72;2.38;;;22.30;74.20;;;;;;5038968;28;20169;-69
2021/07/09 10:54:30;;;;;;;5.78;2.42;;;22.30;74.30;;;;;;5032804;28;20044;-69
2021/07/09 10:57:20;;;;;;;6.38;2.25;;;22.40;74.40;;;;;;5032249;28;20025;-69
2021/07/09 11:00:23;;;;;;;4.10;2.15;;;22.50;73.40;;;;;;5038556;28;20079;-69
2021/07/09 11:03:03;;;;;;;5.82;2.50;;;22.50;71.80;;;;;;5038689;28;20388;-69
2021/07/09 11:05:44;;;;;;;5.43;2.83;;;22.50;73.00;;;;;;5035363;28;20396;-69
2021/07/09 11:08:32;;;;;;;5.30;2.35;;;22.50;72.70;;;;;;5038013;28;20036;-69
2021/07/09 11:11:05;;;;;;;6.15;2.92;;;22.30;70.80;;;;;;5038564;28;20136;-69
2021/07/09 11:13:40;;;;;;;5.55;2.78;;;22.40;72.40;;;;;;5034945;28;20484;-69
2021/07/09 11:16:20;;;;;;;5.53;2.90;;;22.40;73.20;;;;;;5038313;28;20037;-69
2021/07/09 11:18:54;;;;;;;6.28;3.10;;;22.40;72.90;;;;;;5038048;28;20029;-69
2021/07/09 11:21:32;;;;;;;6.65;2.92;;;22.40;72.90;;;;;;5037678;28;20040;-69
2021/07/09 11:24:14;;;;;;;6.85;3.33;;;22.40;71.30;;;;;;5037751;28;20038;-68
2021/07/09 11:26:45;;;;;;;7.18;3.00;;;22.40;70.20;;;;;;5038032;28;20028;-68
2021/07/09 11:29:22;;;;;;;7.82;3.35;;;22.20;67.90;;;;;;5037919;28;20038;-68
2021/07/09 11:31:48;;;;;;;6.90;2.95;;;22.10;68.70;;;;;;5033382;28;20384;-68
2021/07/09 11:34:16;;;;;;;5.85;3.35;;;22.00;68.90;;;;;;5037846;28;20389;-68
2021/07/09 11:36:58;;;;;;;6.20;3.15;;;21.90;68.60;;;;;;5037911;28;20021;-69
2021/07/09 11:39:29;;;;;;;6.93;3.40;;;21.80;69.50;;;;;;5031944;28;20113;-69
2021/07/09 11:42:04;;;;;;;5.32;2.92;;;21.70;69.50;;;;;;5048181;28;20028;-68
2021/07/09 11:44:39;;;;;;;7.18;3.63;;;21.60;68.40;;;;;;5052087;28;20053;-68
2021/07/09 11:47:08;;;;;;;5.07;3.20;;;21.50;68.90;;;;;;5024230;28;20037;-68
2021/07/09 11:49:36;;;;;;;5.47;3.20;;;21.40;69.40;;;;;;5037844;28;20139;-68
2021/07/09 11:52:07;;;;;;;5.90;3.25;;;21.40;69.70;;;;;;5037732;28;20540;-68
2021/07/09 11:54:38;;;;;;;6.38;3.67;;;21.30;69.40;;;;;;5036359;28;20082;-68
2021/07/09 11:57:08;;;;;;;6.45;3.35;;;21.30;69.60;;;;;;5037485;28;20020;-68
2021/07/09 11:59:37;;;;;;;6.72;3.17;;;21.20;69.40;;;;;;5037831;28;20025;-68
2021/07/09 12:02:09;;;;;;;6.65;3.63;;;21.20;70.00;;;;;;5037594;28;20105;-68
2021/07/09 12:04:38;;;;;;;;;;;21.20;70.40;;;;;;5038098;28;20120;-68
2021/07/09 12:07:24;;;;;;;6.07;3.80;;;21.30;70.70;;;;;;5037717;28;19905;-68
2021/07/09 12:10:00;;;;;;;7.97;4.13;;;21.30;70.70;;;;;;5036948;28;20025;-68
2021/07/09 12:12:30;;;;;;;6.20;3.90;;;21.30;69.60;;;;;;5037205;28;20026;-68
2021/07/09 12:15:03;;;;;;;7.53;4.00;;;21.30;69.20;;;;;;5037336;28;20036;-68
2021/07/09 12:17:32;;;;;;;6.88;3.83;;;21.30;69.20;;;;;;5037461;28;20036;-68
2021/07/09 12:20:18;;;;;;;10.35;4.43;;;21.20;69.20;;;;;;5037150;28;20053;-67
2021/07/09 12:22:50;;;;;;;9.60;4.10;;;21.20;69.50;;;;;;5037130;28;20028;-67
2021/07/09 12:25:22;;;;;;;10.27;4.68;;;21.20;70.00;;;;;;5037293;28;20021;-68
2021/07/09 12:27:48;;;;;;;;;;;21.10;70.10;;;;;;5037627;28;20420;-68
2021/07/09 12:30:18;;;;;;;8.35;4.25;;;21.10;69.80;;;;;;5037356;28;19936;-68
2021/07/09 12:32:46;;;;;;;9.00;4.72;;;21.20;70.40;;;;;;5037138;28;20061;-67
2021/07/09 12:35:12;;;;;;;8.50;3.97;;;21.20;70.30;;;;;;5036593;28;20512;-68
2021/07/09 12:37:39;;;;;;;7.80;3.75;;;21.20;70.30;;;;;;5037159;28;20025;-68
2021/07/09 12:40:10;;;;;;;12.32;4.47;;;21.20;70.20;;;;;;5037033;28;20022;-68
2021/07/09 12:42:38;;;;;;;6.45;3.67;;;21.20;70.20;;;;;;5037315;28;20028;-67
2021/07/09 12:45:05;;;;;;;8.13;4.03;;;21.20;70.40;;;;;;5037084;28;20032;-67